sensor_id;sensor_type;location;lat;lon;timestamp;P1;durP1;ratioP1;P2;durP2;ratioP2
65145;SDS011;51730;56.950;24.126;2022-07-18T00:01:17;2.65;;;1.70;;
65145;SDS011;51730;56.950;24.126;2022-07-18T00:03:44;2.58;;;1.70;;
65145;SDS011;51730;56.950;24.126;2022-07-18T00:06:11;3.90;;;2.00;;
65145;SDS011;51730;56.950;24.126;2022-07-18T00:08:38;5.05;;;2.28;;
65145;SDS011;51730;56.950;24.126;2022-07-18T00:11:05;5.35;;;2.60;;
65145;SDS011;51730;56.950;24.126;2022-07-18T00:13:34;3.65;;;2.17;;
65145;SDS011;51730;56.950;24.126;2022-07-18T00:16:01;6.60;;;2.25;;
65145;SDS011;51730;56.950;24.126;2022-07-18T00:18:28;7.43;;;2.30;;
65145;SDS011;51730;56.950;24.126;2022-07-18T00:20:56;3.10;;;1.80;;
65145;SDS011;51730;56.950;24.126;2022-07-18T00:23:23;5.50;;;1.95;;
65145;SDS011;51730;56.950;24.126;2022-07-18T00:25:50;6.70;;;2.50;;
65145;SDS011;51730;56.950;24.126;2022-07-18T00:28:17;5.38;;;2.22;;
65145;SDS011;51730;56.950;24.126;2022-07-18T00:30:44;5.60;;;1.92;;
65145;SDS011;51730;56.950;24.126;2022-07-18T00:33:11;4.85;;;2.05;;
65145;SDS011;51730;56.950;24.126;2022-07-18T00:35:38;5.00;;;2.17;;
65145;SDS011;51730;56.950;24.126;2022-07-18T00:38:05;4.18;;;2.10;;
65145;SDS011;51730;56.950;24.126;2022-07-18T00:40:33;6.28;;;1.88;;
65145;SDS011;51730;56.950;24.126;2022-07-18T00:43:00;6.30;;;2.05;;
65145;SDS011;51730;56.950;24.126;2022-07-18T00:45:27;2.42;;;1.67;;
65145;SDS011;51730;56.950;24.126;2022-07-18T00:47:54;5.50;;;1.88;;
65145;SDS011;51730;56.950;24.126;2022-07-18T00:50:21;4.47;;;1.90;;
65145;SDS011;51730;56.950;24.126;2022-07-18T00:52:50;5.65;;;1.80;;
65145;SDS011;51730;56.950;24.126;2022-07-18T00:55:17;3.70;;;1.90;;
65145;SDS011;51730;56.950;24.126;2022-07-18T00:57:44;5.32;;;2.00;;
65145;SDS011;51730;56.950;24.126;2022-07-18T01:00:12;3.78;;;1.70;;
65145;SDS011;51730;56.950;24.126;2022-07-18T01:02:59;5.35;;;1.95;;
65145;SDS011;51730;56.950;24.126;2022-07-18T01:05:26;5.65;;;2.10;;
65145;SDS011;51730;56.950;24.126;2022-07-18T01:07:53;7.38;;;2.38;;
65145;SDS011;51730;56.950;24.126;2022-07-18T01:10:20;8.60;;;3.45;;
65145;SDS011;51730;56.950;24.126;2022-07-18T01:12:48;7.28;;;2.75;;
65145;SDS011;51730;56.950;24.126;2022-07-18T01:15:15;10.73;;;4.28;;
65145;SDS011;51730;56.950;24.126;2022-07-18T01:17:42;7.78;;;2.67;;
65145;SDS011;51730;56.950;24.126;2022-07-18T01:20:12;7.22;;;2.30;;
65145;SDS011;51730;56.950;24.126;2022-07-18T01:22:39;8.38;;;2.00;;
65145;SDS011;51730;56.950;24.126;2022-07-18T01:25:09;4.38;;;1.92;;
65145;SDS011;51730;56.950;24.126;2022-07-18T01:27:37;7.60;;;2.55;;
65145;SDS011;51730;56.950;24.126;2022-07-18T01:30:07;7.97;;;2.20;;
65145;SDS011;51730;56.950;24.126;2022-07-18T01:32:34;10.88;;;2.30;;
65145;SDS011;51730;56.950;24.126;2022-07-18T01:35:02;5.53;;;2.75;;
65145;SDS011;51730;56.950;24.126;2022-07-18T01:37:29;8.10;;;2.47;;
65145;SDS011;51730;56.950;24.126;2022-07-18T01:39:57;5.55;;;2.28;;
65145;SDS011;51730;56.950;24.126;2022-07-18T01:42:24;8.02;;;2.50;;
65145;SDS011;51730;56.950;24.126;2022-07-18T01:44:51;3.47;;;2.22;;
65145;SDS011;51730;56.950;24.126;2022-07-18T01:47:18;9.13;;;2.70;;
65145;SDS011;51730;56.950;24.126;2022-07-18T01:49:45;8.48;;;2.55;;
65145;SDS011;51730;56.950;24.126;2022-07-18T01:52:12;6.57;;;3.10;;
65145;SDS011;51730;56.950;24.126;2022-07-18T01:54:39;8.43;;;2.55;;
65145;SDS011;51730;56.950;24.126;2022-07-18T01:57:07;7.68;;;2.17;;
65145;SDS011;51730;56.950;24.126;2022-07-18T01:59:34;5.68;;;2.33;;
65145;SDS011;51730;56.950;24.126;2022-07-18T02:02:03;10.52;;;2.38;;
65145;SDS011;51730;56.950;24.126;2022-07-18T02:04:31;12.85;;;2.80;;
65145;SDS011;51730;56.950;24.126;2022-07-18T02:07:17;8.55;;;2.33;;
65145;SDS011;51730;56.950;24.126;2022-07-18T02:09:44;8.38;;;2.55;;
65145;SDS011;51730;56.950;24.126;2022-07-18T02:12:11;7.68;;;2.50;;
65145;SDS011;51730;56.950;24.126;2022-07-18T02:14:38;7.57;;;2.60;;
65145;SDS011;51730;56.950;24.126;2022-07-18T02:17:05;4.50;;;2.25;;
65145;SDS011;51730;56.950;24.126;2022-07-18T02:19:33;6.68;;;2.58;;
65145;SDS011;51730;56.950;24.126;2022-07-18T02:22:00;6.30;;;2.47;;
65145;SDS011;51730;56.950;24.126;2022-07-18T02:24:27;5.90;;;2.65;;
65145;SDS011;51730;56.950;24.126;2022-07-18T02:26:54;4.97;;;2.55;;
65145;SDS011;51730;56.950;24.126;2022-07-18T02:29:21;5.85;;;2.85;;
65145;SDS011;51730;56.950;24.126;2022-07-18T02:31:48;7.40;;;3.13;;
65145;SDS011;51730;56.950;24.126;2022-07-18T02:34:15;8.90;;;3.00;;
65145;SDS011;51730;56.950;24.126;2022-07-18T02:36:43;6.15;;;2.85;;
65145;SDS011;51730;56.950;24.126;2022-07-18T02:39:10;6.13;;;2.67;;
65145;SDS011;51730;56.950;24.126;2022-07-18T02:41:38;10.05;;;3.03;;
65145;SDS011;51730;56.950;24.126;2022-07-18T02:44:05;7.90;;;2.75;;
65145;SDS011;51730;56.950;24.126;2022-07-18T02:46:32;11.45;;;3.10;;
65145;SDS011;51730;56.950;24.126;2022-07-18T02:48:59;11.77;;;2.58;;
65145;SDS011;51730;56.950;24.126;2022-07-18T02:51:27;9.57;;;3.55;;
65145;SDS011;51730;56.950;24.126;2022-07-18T02:53:54;6.10;;;2.80;;
65145;SDS011;51730;56.950;24.126;2022-07-18T02:56:21;9.23;;;3.03;;
65145;SDS011;51730;56.950;24.126;2022-07-18T02:58:48;9.60;;;3.38;;
65145;SDS011;51730;56.950;24.126;2022-07-18T03:01:16;8.20;;;3.22;;
65145;SDS011;51730;56.950;24.126;2022-07-18T03:03:43;8.88;;;3.10;;
65145;SDS011;51730;56.950;24.126;2022-07-18T03:06:10;5.95;;;2.83;;
65145;SDS011;51730;56.950;24.126;2022-07-18T03:08:37;13.50;;;3.30;;
65145;SDS011;51730;56.950;24.126;2022-07-18T03:11:04;7.57;;;2.85;;
65145;SDS011;51730;56.950;24.126;2022-07-18T03:13:33;5.45;;;2.78;;
65145;SDS011;51730;56.950;24.126;2022-07-18T03:16:00;8.32;;;3.38;;
65145;SDS011;51730;56.950;24.126;2022-07-18T03:18:27;6.65;;;3.00;;
65145;SDS011;51730;56.950;24.126;2022-07-18T03:20:55;10.43;;;3.25;;
65145;SDS011;51730;56.950;24.126;2022-07-18T03:23:22;7.07;;;2.97;;
65145;SDS011;51730;56.950;24.126;2022-07-18T03:25:49;5.63;;;3.17;;
65145;SDS011;51730;56.950;24.126;2022-07-18T03:28:16;5.60;;;3.15;;
65145;SDS011;51730;56.950;24.126;2022-07-18T03:30:43;7.93;;;3.05;;
65145;SDS011;51730;56.950;24.126;2022-07-18T03:33:10;12.57;;;3.60;;
65145;SDS011;51730;56.950;24.126;2022-07-18T03:35:37;9.00;;;3.33;;
65145;SDS011;51730;56.950;24.126;2022-07-18T03:38:04;13.15;;;3.95;;
65145;SDS011;51730;56.950;24.126;2022-07-18T03:40:31;10.48;;;4.05;;
65145;SDS011;51730;56.950;24.126;2022-07-18T03:42:59;13.13;;;3.92;;
65145;SDS011;51730;56.950;24.126;2022-07-18T03:45:26;10.85;;;3.90;;
65145;SDS011;51730;56.950;24.126;2022-07-18T03:47:53;10.82;;;3.90;;
65145;SDS011;51730;56.950;24.126;2022-07-18T03:50:21;11.07;;;4.03;;
65145;SDS011;51730;56.950;24.126;2022-07-18T03:52:48;7.15;;;3.70;;
65145;SDS011;51730;56.950;24.126;2022-07-18T03:55:16;10.55;;;3.63;;
65145;SDS011;51730;56.950;24.126;2022-07-18T03:57:43;7.82;;;4.03;;
65145;SDS011;51730;56.950;24.126;2022-07-18T04:00:10;7.28;;;3.70;;
65145;SDS011;51730;56.950;24.126;2022-07-18T04:02:41;10.05;;;4.45;;
65145;SDS011;51730;56.950;24.126;2022-07-18T04:05:09;9.60;;;3.70;;
65145;SDS011;51730;56.950;24.126;2022-07-18T04:07:37;8.25;;;3.90;;
65145;SDS011;51730;56.950;24.126;2022-07-18T04:10:05;6.40;;;3.60;;
65145;SDS011;51730;56.950;24.126;2022-07-18T04:12:33;6.40;;;3.60;;
65145;SDS011;51730;56.950;24.126;2022-07-18T04:15:01;10.23;;;3.67;;
65145;SDS011;51730;56.950;24.126;2022-07-18T04:17:29;12.05;;;4.65;;
65145;SDS011;51730;56.950;24.126;2022-07-18T04:19:56;16.83;;;4.80;;
65145;SDS011;51730;56.950;24.126;2022-07-18T04:22:23;7.28;;;3.75;;
65145;SDS011;51730;56.950;24.126;2022-07-18T04:24:50;9.52;;;3.92;;
65145;SDS011;51730;56.950;24.126;2022-07-18T04:27:19;8.02;;;3.75;;
65145;SDS011;51730;56.950;24.126;2022-07-18T04:29:46;9.18;;;3.72;;
65145;SDS011;51730;56.950;24.126;2022-07-18T04:32:15;9.82;;;3.88;;
65145;SDS011;51730;56.950;24.126;2022-07-18T04:34:43;10.10;;;5.43;;
65145;SDS011;51730;56.950;24.126;2022-07-18T04:37:10;11.50;;;3.72;;
65145;SDS011;51730;56.950;24.126;2022-07-18T04:39:37;10.20;;;3.47;;
65145;SDS011;51730;56.950;24.126;2022-07-18T04:42:04;8.55;;;3.45;;
65145;SDS011;51730;56.950;24.126;2022-07-18T04:44:31;10.07;;;3.63;;
65145;SDS011;51730;56.950;24.126;2022-07-18T04:46:58;10.80;;;3.47;;
65145;SDS011;51730;56.950;24.126;2022-07-18T04:49:25;7.38;;;3.67;;
65145;SDS011;51730;56.950;24.126;2022-07-18T04:51:52;13.13;;;3.88;;
65145;SDS011;51730;56.950;24.126;2022-07-18T04:54:20;5.93;;;3.58;;
65145;SDS011;51730;56.950;24.126;2022-07-18T04:56:47;10.98;;;3.63;;
65145;SDS011;51730;56.950;24.126;2022-07-18T04:59:14;7.85;;;3.85;;
65145;SDS011;51730;56.950;24.126;2022-07-18T05:01:41;11.82;;;3.60;;
65145;SDS011;51730;56.950;24.126;2022-07-18T05:04:09;8.27;;;4.30;;
65145;SDS011;51730;56.950;24.126;2022-07-18T05:06:36;12.68;;;5.63;;
65145;SDS011;51730;56.950;24.126;2022-07-18T05:09:03;8.43;;;4.32;;
65145;SDS011;51730;56.950;24.126;2022-07-18T05:11:30;12.05;;;6.55;;
65145;SDS011;51730;56.950;24.126;2022-07-18T05:13:57;15.27;;;6.75;;
65145;SDS011;51730;56.950;24.126;2022-07-18T05:16:24;11.38;;;5.60;;
65145;SDS011;51730;56.950;24.126;2022-07-18T05:18:52;13.77;;;4.60;;
65145;SDS011;51730;56.950;24.126;2022-07-18T05:21:19;12.73;;;4.32;;
65145;SDS011;51730;56.950;24.126;2022-07-18T05:23:46;11.00;;;4.57;;
65145;SDS011;51730;56.950;24.126;2022-07-18T05:26:13;12.43;;;5.80;;
65145;SDS011;51730;56.950;24.126;2022-07-18T05:28:40;15.63;;;9.43;;
65145;SDS011;51730;56.950;24.126;2022-07-18T05:31:07;12.95;;;6.88;;
65145;SDS011;51730;56.950;24.126;2022-07-18T05:33:37;15.45;;;6.30;;
65145;SDS011;51730;56.950;24.126;2022-07-18T05:36:04;12.98;;;6.25;;
65145;SDS011;51730;56.950;24.126;2022-07-18T05:38:32;14.00;;;5.80;;
65145;SDS011;51730;56.950;24.126;2022-07-18T05:40:59;10.45;;;4.13;;
65145;SDS011;51730;56.950;24.126;2022-07-18T05:43:26;10.73;;;3.88;;
65145;SDS011;51730;56.950;24.126;2022-07-18T05:45:53;10.13;;;4.55;;
65145;SDS011;51730;56.950;24.126;2022-07-18T05:48:20;11.73;;;4.50;;
65145;SDS011;51730;56.950;24.126;2022-07-18T05:50:47;11.63;;;4.60;;
65145;SDS011;51730;56.950;24.126;2022-07-18T05:53:14;10.43;;;4.60;;
65145;SDS011;51730;56.950;24.126;2022-07-18T05:55:41;12.60;;;4.53;;
65145;SDS011;51730;56.950;24.126;2022-07-18T05:58:08;9.48;;;4.28;;
65145;SDS011;51730;56.950;24.126;2022-07-18T06:00:35;10.80;;;5.38;;
65145;SDS011;51730;56.950;24.126;2022-07-18T06:03:02;9.85;;;4.43;;
65145;SDS011;51730;56.950;24.126;2022-07-18T06:05:30;9.75;;;4.75;;
65145;SDS011;51730;56.950;24.126;2022-07-18T06:07:57;10.48;;;5.15;;
65145;SDS011;51730;56.950;24.126;2022-07-18T06:10:25;12.35;;;7.32;;
65145;SDS011;51730;56.950;24.126;2022-07-18T06:12:53;10.48;;;5.50;;
65145;SDS011;51730;56.950;24.126;2022-07-18T06:15:21;11.40;;;4.53;;
65145;SDS011;51730;56.950;24.126;2022-07-18T06:17:49;7.20;;;4.47;;
65145;SDS011;51730;56.950;24.126;2022-07-18T06:20:16;16.67;;;4.90;;
65145;SDS011;51730;56.950;24.126;2022-07-18T06:22:44;11.10;;;4.93;;
65145;SDS011;51730;56.950;24.126;2022-07-18T06:25:11;12.23;;;6.00;;
65145;SDS011;51730;56.950;24.126;2022-07-18T06:27:38;16.75;;;9.57;;
65145;SDS011;51730;56.950;24.126;2022-07-18T06:30:05;13.18;;;5.75;;
65145;SDS011;51730;56.950;24.126;2022-07-18T06:32:38;13.30;;;5.13;;
65145;SDS011;51730;56.950;24.126;2022-07-18T06:35:05;10.90;;;5.15;;
65145;SDS011;51730;56.950;24.126;2022-07-18T06:37:33;9.38;;;4.57;;
65145;SDS011;51730;56.950;24.126;2022-07-18T06:40:00;23.45;;;9.60;;
65145;SDS011;51730;56.950;24.126;2022-07-18T06:42:29;24.40;;;10.43;;
65145;SDS011;51730;56.950;24.126;2022-07-18T06:45:00;16.85;;;5.75;;
65145;SDS011;51730;56.950;24.126;2022-07-18T06:47:31;22.52;;;5.90;;
65145;SDS011;51730;56.950;24.126;2022-07-18T06:49:58;12.13;;;4.28;;
65145;SDS011;51730;56.950;24.126;2022-07-18T06:52:25;14.23;;;4.50;;
65145;SDS011;51730;56.950;24.126;2022-07-18T06:54:52;8.93;;;4.78;;
65145;SDS011;51730;56.950;24.126;2022-07-18T06:57:19;11.80;;;5.18;;
65145;SDS011;51730;56.950;24.126;2022-07-18T06:59:46;16.17;;;5.68;;
65145;SDS011;51730;56.950;24.126;2022-07-18T07:02:18;13.40;;;4.85;;
65145;SDS011;51730;56.950;24.126;2022-07-18T07:04:45;7.70;;;3.90;;
65145;SDS011;51730;56.950;24.126;2022-07-18T07:07:12;9.85;;;4.10;;
65145;SDS011;51730;56.950;24.126;2022-07-18T07:09:39;12.98;;;4.50;;
65145;SDS011;51730;56.950;24.126;2022-07-18T07:12:06;11.27;;;4.30;;
65145;SDS011;51730;56.950;24.126;2022-07-18T07:14:33;11.23;;;4.43;;
65145;SDS011;51730;56.950;24.126;2022-07-18T07:17:00;9.70;;;3.80;;
65145;SDS011;51730;56.950;24.126;2022-07-18T07:19:28;12.32;;;4.47;;
65145;SDS011;51730;56.950;24.126;2022-07-18T07:21:55;13.43;;;5.38;;
65145;SDS011;51730;56.950;24.126;2022-07-18T07:24:22;17.20;;;4.80;;
65145;SDS011;51730;56.950;24.126;2022-07-18T07:26:49;12.02;;;5.63;;
65145;SDS011;51730;56.950;24.126;2022-07-18T07:29:21;9.25;;;5.35;;
65145;SDS011;51730;56.950;24.126;2022-07-18T07:31:48;9.45;;;5.00;;
65145;SDS011;51730;56.950;24.126;2022-07-18T07:34:16;12.13;;;4.55;;
65145;SDS011;51730;56.950;24.126;2022-07-18T07:36:43;13.10;;;4.90;;
65145;SDS011;51730;56.950;24.126;2022-07-18T07:39:10;12.70;;;5.70;;
65145;SDS011;51730;56.950;24.126;2022-07-18T07:41:37;11.18;;;4.97;;
65145;SDS011;51730;56.950;24.126;2022-07-18T07:44:04;15.77;;;7.07;;
65145;SDS011;51730;56.950;24.126;2022-07-18T07:46:31;12.70;;;6.80;;
65145;SDS011;51730;56.950;24.126;2022-07-18T07:48:58;11.13;;;5.72;;
65145;SDS011;51730;56.950;24.126;2022-07-18T07:51:25;8.02;;;4.40;;
65145;SDS011;51730;56.950;24.126;2022-07-18T07:54:00;13.73;;;5.18;;
65145;SDS011;51730;56.950;24.126;2022-07-18T07:56:27;16.08;;;5.45;;
65145;SDS011;51730;56.950;24.126;2022-07-18T07:58:54;11.90;;;5.68;;
65145;SDS011;51730;56.950;24.126;2022-07-18T08:01:21;19.42;;;5.40;;
65145;SDS011;51730;56.950;24.126;2022-07-18T08:03:48;12.27;;;5.82;;
65145;SDS011;51730;56.950;24.126;2022-07-18T08:06:16;15.00;;;8.57;;
65145;SDS011;51730;56.950;24.126;2022-07-18T08:08:43;14.85;;;6.32;;
65145;SDS011;51730;56.950;24.126;2022-07-18T08:11:10;12.52;;;5.63;;
65145;SDS011;51730;56.950;24.126;2022-07-18T08:13:37;14.38;;;6.60;;
65145;SDS011;51730;56.950;24.126;2022-07-18T08:16:04;14.15;;;6.15;;
65145;SDS011;51730;56.950;24.126;2022-07-18T08:18:31;10.68;;;6.43;;
65145;SDS011;51730;56.950;24.126;2022-07-18T08:20:58;8.40;;;5.47;;
65145;SDS011;51730;56.950;24.126;2022-07-18T08:23:25;12.52;;;5.82;;
65145;SDS011;51730;56.950;24.126;2022-07-18T08:25:52;10.23;;;6.65;;
65145;SDS011;51730;56.950;24.126;2022-07-18T08:28:19;11.52;;;6.50;;
65145;SDS011;51730;56.950;24.126;2022-07-18T08:30:46;7.55;;;5.05;;
65145;SDS011;51730;56.950;24.126;2022-07-18T08:33:13;9.95;;;5.18;;
65145;SDS011;51730;56.950;24.126;2022-07-18T08:35:41;13.75;;;5.80;;
65145;SDS011;51730;56.950;24.126;2022-07-18T08:38:08;11.07;;;6.32;;
65145;SDS011;51730;56.950;24.126;2022-07-18T08:40:37;10.48;;;6.60;;
65145;SDS011;51730;56.950;24.126;2022-07-18T08:43:04;11.55;;;5.80;;
65145;SDS011;51730;56.950;24.126;2022-07-18T08:45:49;11.63;;;6.43;;
65145;SDS011;51730;56.950;24.126;2022-07-18T08:48:21;13.68;;;7.20;;
65145;SDS011;51730;56.950;24.126;2022-07-18T08:50:49;12.32;;;5.95;;
65145;SDS011;51730;56.950;24.126;2022-07-18T08:53:17;12.13;;;5.32;;
65145;SDS011;51730;56.950;24.126;2022-07-18T08:55:45;11.60;;;5.50;;
65145;SDS011;51730;56.950;24.126;2022-07-18T08:58:13;12.25;;;5.53;;
65145;SDS011;51730;56.950;24.126;2022-07-18T09:01:03;12.02;;;5.38;;
65145;SDS011;51730;56.950;24.126;2022-07-18T09:03:31;12.73;;;6.43;;
65145;SDS011;51730;56.950;24.126;2022-07-18T09:06:17;13.43;;;9.05;;
65145;SDS011;51730;56.950;24.126;2022-07-18T09:08:57;17.42;;;10.23;;
65145;SDS011;51730;56.950;24.126;2022-07-18T09:11:26;9.68;;;6.97;;
65145;SDS011;51730;56.950;24.126;2022-07-18T09:14:33;12.63;;;6.60;;
65145;SDS011;51730;56.950;24.126;2022-07-18T09:17:19;17.90;;;6.35;;
65145;SDS011;51730;56.950;24.126;2022-07-18T09:20:02;15.13;;;7.50;;
65145;SDS011;51730;56.950;24.126;2022-07-18T09:22:39;16.55;;;9.73;;
65145;SDS011;51730;56.950;24.126;2022-07-18T09:25:08;13.18;;;8.80;;
65145;SDS011;51730;56.950;24.126;2022-07-18T09:27:40;16.58;;;7.05;;
65145;SDS011;51730;56.950;24.126;2022-07-18T09:32:55;13.10;;;7.85;;
65145;SDS011;51730;56.950;24.126;2022-07-18T09:35:34;13.45;;;6.50;;
65145;SDS011;51730;56.950;24.126;2022-07-18T09:38:07;12.15;;;6.60;;
65145;SDS011;51730;56.950;24.126;2022-07-18T09:43:08;8.65;;;5.57;;
65145;SDS011;51730;56.950;24.126;2022-07-18T09:45:47;10.93;;;6.28;;
65145;SDS011;51730;56.950;24.126;2022-07-18T09:48:21;12.75;;;6.15;;
65145;SDS011;51730;56.950;24.126;2022-07-18T09:50:56;14.57;;;6.40;;
65145;SDS011;51730;56.950;24.126;2022-07-18T09:53:32;9.55;;;6.38;;
65145;SDS011;51730;56.950;24.126;2022-07-18T09:56:04;15.05;;;6.60;;
65145;SDS011;51730;56.950;24.126;2022-07-18T09:58:34;11.57;;;6.68;;
65145;SDS011;51730;56.950;24.126;2022-07-18T10:01:04;11.80;;;5.68;;
65145;SDS011;51730;56.950;24.126;2022-07-18T10:03:32;7.82;;;5.60;;
65145;SDS011;51730;56.950;24.126;2022-07-18T10:06:00;11.57;;;5.50;;
65145;SDS011;51730;56.950;24.126;2022-07-18T10:08:29;9.40;;;5.18;;
65145;SDS011;51730;56.950;24.126;2022-07-18T10:10:58;13.10;;;5.63;;
65145;SDS011;51730;56.950;24.126;2022-07-18T10:13:28;18.45;;;10.60;;
65145;SDS011;51730;56.950;24.126;2022-07-18T10:15:56;15.02;;;8.48;;
65145;SDS011;51730;56.950;24.126;2022-07-18T10:18:25;11.57;;;7.10;;
65145;SDS011;51730;56.950;24.126;2022-07-18T10:23:38;13.13;;;6.95;;
65145;SDS011;51730;56.950;24.126;2022-07-18T10:26:19;8.00;;;4.10;;
65145;SDS011;51730;56.950;24.126;2022-07-18T10:39:10;8.40;;;3.97;;
65145;SDS011;51730;56.950;24.126;2022-07-18T10:47:02;9.77;;;5.25;;
65145;SDS011;51730;56.950;24.126;2022-07-18T10:57:33;19.65;;;9.75;;
65145;SDS011;51730;56.950;24.126;2022-07-18T11:00:10;12.75;;;6.95;;
65145;SDS011;51730;56.950;24.126;2022-07-18T11:02:44;11.88;;;5.93;;
65145;SDS011;51730;56.950;24.126;2022-07-18T11:11:25;13.15;;;6.72;;
65145;SDS011;51730;56.950;24.126;2022-07-18T11:15:56;13.57;;;7.75;;
65145;SDS011;51730;56.950;24.126;2022-07-18T11:26:30;9.20;;;4.18;;
65145;SDS011;51730;56.950;24.126;2022-07-18T11:28:58;7.75;;;3.58;;
65145;SDS011;51730;56.950;24.126;2022-07-18T11:31:29;12.85;;;5.68;;
65145;SDS011;51730;56.950;24.126;2022-07-18T11:33:58;11.77;;;4.18;;
65145;SDS011;51730;56.950;24.126;2022-07-18T11:36:28;8.10;;;3.40;;
65145;SDS011;51730;56.950;24.126;2022-07-18T11:39:00;8.40;;;4.20;;
65145;SDS011;51730;56.950;24.126;2022-07-18T11:41:30;7.55;;;3.90;;
65145;SDS011;51730;56.950;24.126;2022-07-18T11:43:57;11.55;;;4.47;;
65145;SDS011;51730;56.950;24.126;2022-07-18T11:46:26;10.85;;;5.43;;
65145;SDS011;51730;56.950;24.126;2022-07-18T11:49:12;8.48;;;2.83;;
65145;SDS011;51730;56.950;24.126;2022-07-18T11:51:40;3.70;;;2.20;;
65145;SDS011;51730;56.950;24.126;2022-07-18T11:54:11;4.72;;;2.67;;
65145;SDS011;51730;56.950;24.126;2022-07-18T11:56:49;5.07;;;2.83;;
65145;SDS011;51730;56.950;24.126;2022-07-18T11:59:19;6.80;;;2.08;;
65145;SDS011;51730;56.950;24.126;2022-07-18T12:01:47;6.53;;;2.58;;
65145;SDS011;51730;56.950;24.126;2022-07-18T12:04:22;3.40;;;1.42;;
65145;SDS011;51730;56.950;24.126;2022-07-18T12:09:43;6.65;;;2.50;;
65145;SDS011;51730;56.950;24.126;2022-07-18T12:12:12;6.20;;;2.20;;
65145;SDS011;51730;56.950;24.126;2022-07-18T12:14:58;6.65;;;2.00;;
65145;SDS011;51730;56.950;24.126;2022-07-18T12:17:28;9.48;;;2.90;;
65145;SDS011;51730;56.950;24.126;2022-07-18T12:20:13;11.60;;;2.20;;
65145;SDS011;51730;56.950;24.126;2022-07-18T12:25:40;5.70;;;2.28;;
65145;SDS011;51730;56.950;24.126;2022-07-18T12:28:18;6.35;;;2.50;;
65145;SDS011;51730;56.950;24.126;2022-07-18T12:30:47;10.00;;;2.42;;
65145;SDS011;51730;56.950;24.126;2022-07-18T12:33:14;6.70;;;2.97;;
65145;SDS011;51730;56.950;24.126;2022-07-18T12:35:42;8.02;;;2.58;;
65145;SDS011;51730;56.950;24.126;2022-07-18T12:40:57;6.03;;;2.80;;
65145;SDS011;51730;56.950;24.126;2022-07-18T12:43:28;9.95;;;2.83;;
65145;SDS011;51730;56.950;24.126;2022-07-18T12:45:56;5.85;;;2.33;;
65145;SDS011;51730;56.950;24.126;2022-07-18T12:48:26;6.10;;;2.30;;
65145;SDS011;51730;56.950;24.126;2022-07-18T12:50:56;7.07;;;2.55;;
65145;SDS011;51730;56.950;24.126;2022-07-18T12:53:25;5.78;;;2.13;;
65145;SDS011;51730;56.950;24.126;2022-07-18T12:55:54;6.70;;;2.60;;
65145;SDS011;51730;56.950;24.126;2022-07-18T12:58:21;4.97;;;2.00;;
65145;SDS011;51730;56.950;24.126;2022-07-18T13:00:48;4.80;;;2.22;;
65145;SDS011;51730;56.950;24.126;2022-07-18T13:03:16;4.32;;;2.15;;
65145;SDS011;51730;56.950;24.126;2022-07-18T13:05:43;5.70;;;2.78;;
65145;SDS011;51730;56.950;24.126;2022-07-18T13:08:10;4.65;;;1.90;;
65145;SDS011;51730;56.950;24.126;2022-07-18T13:10:38;5.53;;;3.67;;
65145;SDS011;51730;56.950;24.126;2022-07-18T13:13:06;4.05;;;2.15;;
65145;SDS011;51730;56.950;24.126;2022-07-18T13:15:35;3.50;;;1.90;;
65145;SDS011;51730;56.950;24.126;2022-07-18T13:18:04;4.00;;;1.77;;
65145;SDS011;51730;56.950;24.126;2022-07-18T13:20:32;4.38;;;1.88;;
65145;SDS011;51730;56.950;24.126;2022-07-18T13:22:59;3.80;;;2.00;;
65145;SDS011;51730;56.950;24.126;2022-07-18T13:25:28;3.58;;;1.70;;
65145;SDS011;51730;56.950;24.126;2022-07-18T13:27:55;2.40;;;1.73;;
65145;SDS011;51730;56.950;24.126;2022-07-18T13:30:22;5.18;;;2.47;;
65145;SDS011;51730;56.950;24.126;2022-07-18T13:32:49;3.13;;;1.73;;
65145;SDS011;51730;56.950;24.126;2022-07-18T13:35:16;1.92;;;1.15;;
65145;SDS011;51730;56.950;24.126;2022-07-18T13:37:44;2.42;;;1.40;;
65145;SDS011;51730;56.950;24.126;2022-07-18T13:40:11;1.67;;;1.30;;
65145;SDS011;51730;56.950;24.126;2022-07-18T13:42:40;3.42;;;1.63;;
65145;SDS011;51730;56.950;24.126;2022-07-18T13:45:08;4.38;;;2.08;;
65145;SDS011;51730;56.950;24.126;2022-07-18T13:47:36;3.83;;;1.90;;
65145;SDS011;51730;56.950;24.126;2022-07-18T13:50:04;5.20;;;1.45;;
65145;SDS011;51730;56.950;24.126;2022-07-18T13:52:32;3.10;;;1.42;;
65145;SDS011;51730;56.950;24.126;2022-07-18T13:54:59;3.53;;;1.60;;
65145;SDS011;51730;56.950;24.126;2022-07-18T13:57:27;3.92;;;1.67;;
65145;SDS011;51730;56.950;24.126;2022-07-18T13:59:54;9.13;;;1.90;;
65145;SDS011;51730;56.950;24.126;2022-07-18T14:02:21;4.65;;;1.98;;
65145;SDS011;51730;56.950;24.126;2022-07-18T14:04:49;2.63;;;2.00;;
65145;SDS011;51730;56.950;24.126;2022-07-18T14:07:36;7.50;;;2.20;;
65145;SDS011;51730;56.950;24.126;2022-07-18T14:10:03;4.22;;;2.33;;
65145;SDS011;51730;56.950;24.126;2022-07-18T14:12:33;5.00;;;2.42;;
65145;SDS011;51730;56.950;24.126;2022-07-18T14:15:01;5.13;;;2.13;;
65145;SDS011;51730;56.950;24.126;2022-07-18T14:17:28;4.63;;;2.42;;
65145;SDS011;51730;56.950;24.126;2022-07-18T14:19:56;5.72;;;1.90;;
65145;SDS011;51730;56.950;24.126;2022-07-18T14:22:23;4.22;;;3.03;;
65145;SDS011;51730;56.950;24.126;2022-07-18T14:24:50;5.35;;;3.80;;
65145;SDS011;51730;56.950;24.126;2022-07-18T14:27:17;5.03;;;2.58;;
65145;SDS011;51730;56.950;24.126;2022-07-18T14:29:49;8.10;;;3.00;;
65145;SDS011;51730;56.950;24.126;2022-07-18T14:32:16;4.90;;;3.03;;
65145;SDS011;51730;56.950;24.126;2022-07-18T14:34:44;7.57;;;4.60;;
65145;SDS011;51730;56.950;24.126;2022-07-18T14:37:11;7.88;;;3.10;;
65145;SDS011;51730;56.950;24.126;2022-07-18T14:39:38;3.17;;;2.60;;
65145;SDS011;51730;56.950;24.126;2022-07-18T14:42:05;6.15;;;3.30;;
65145;SDS011;51730;56.950;24.126;2022-07-18T14:44:32;5.72;;;2.70;;
65145;SDS011;51730;56.950;24.126;2022-07-18T14:46:59;4.18;;;2.85;;
65145;SDS011;51730;56.950;24.126;2022-07-18T14:49:27;4.72;;;3.20;;
65145;SDS011;51730;56.950;24.126;2022-07-18T14:51:54;3.92;;;2.65;;
65145;SDS011;51730;56.950;24.126;2022-07-18T14:54:22;4.60;;;2.53;;
65145;SDS011;51730;56.950;24.126;2022-07-18T14:56:50;4.72;;;2.30;;
65145;SDS011;51730;56.950;24.126;2022-07-18T14:59:18;3.50;;;2.58;;
65145;SDS011;51730;56.950;24.126;2022-07-18T15:01:45;4.63;;;2.65;;
65145;SDS011;51730;56.950;24.126;2022-07-18T15:04:13;2.30;;;2.05;;
65145;SDS011;51730;56.950;24.126;2022-07-18T15:06:44;2.58;;;2.13;;
65145;SDS011;51730;56.950;24.126;2022-07-18T15:09:11;2.80;;;1.42;;
65145;SDS011;51730;56.950;24.126;2022-07-18T15:11:39;1.70;;;1.40;;
65145;SDS011;51730;56.950;24.126;2022-07-18T15:14:07;4.75;;;1.50;;
65145;SDS011;51730;56.950;24.126;2022-07-18T15:16:34;7.75;;;1.80;;
65145;SDS011;51730;56.950;24.126;2022-07-18T15:19:02;3.03;;;1.77;;
65145;SDS011;51730;56.950;24.126;2022-07-18T15:21:30;3.15;;;1.80;;
65145;SDS011;51730;56.950;24.126;2022-07-18T15:23:58;5.80;;;2.60;;
65145;SDS011;51730;56.950;24.126;2022-07-18T15:26:26;2.35;;;1.95;;
65145;SDS011;51730;56.950;24.126;2022-07-18T15:28:53;2.63;;;2.20;;
65145;SDS011;51730;56.950;24.126;2022-07-18T15:31:20;4.72;;;1.50;;
65145;SDS011;51730;56.950;24.126;2022-07-18T15:33:47;3.45;;;1.92;;